sensor_id;sensor_type;location;lat;lon;timestamp;pressure;altitude;pressure_sealevel;temperature;humidity
44839;BME280;30576;42.098;24.876;2023-07-13T00:00:38;99740.47;;;26.57;52.66
44839;BME280;30576;42.098;24.876;2023-07-13T00:03:04;99742.78;;;26.51;51.39
44839;BME280;30576;42.098;24.876;2023-07-13T00:05:30;99737.75;;;26.35;52.93
44839;BME280;30576;42.098;24.876;2023-07-13T00:07:56;99743.16;;;26.46;52.15
44839;BME280;30576;42.098;24.876;2023-07-13T00:10:22;99725.75;;;26.27;52.75
44839;BME280;30576;42.098;24.876;2023-07-13T00:12:47;99746.22;;;26.41;52.05
44839;BME280;30576;42.098;24.876;2023-07-13T00:15:24;99747.25;;;26.40;52.05
44839;BME280;30576;42.098;24.876;2023-07-13T00:17:52;99739.72;;;26.44;52.15
44839;BME280;30576;42.098;24.876;2023-07-13T00:20:17;99754.72;;;26.37;51.64
44839;BME280;30576;42.098;24.876;2023-07-13T00:22:43;99729.50;;;26.02;51.92
44839;BME280;30576;42.098;24.876;2023-07-13T00:25:10;99718.94;;;25.99;52.26
44839;BME280;30576;42.098;24.876;2023-07-13T00:27:36;99749.81;;;26.19;53.00
44839;BME280;30576;42.098;24.876;2023-07-13T00:30:02;99729.59;;;25.78;55.28
44839;BME280;30576;42.098;24.876;2023-07-13T00:32:27;99745.03;;;25.76;56.42
44839;BME280;30576;42.098;24.876;2023-07-13T00:34:54;99720.16;;;25.48;57.20
44839;BME280;30576;42.098;24.876;2023-07-13T00:37:19;99737.25;;;25.60;57.56
44839;BME280;30576;42.098;24.876;2023-07-13T00:39:45;99697.56;;;25.38;57.70
44839;BME280;30576;42.098;24.876;2023-07-13T00:42:10;99713.56;;;25.52;57.99
44839;BME280;30576;42.098;24.876;2023-07-13T00:44:36;99728.91;;;25.52;58.28
44839;BME280;30576;42.098;24.876;2023-07-13T00:47:02;99740.94;;;25.59;58.46
44839;BME280;30576;42.098;24.876;2023-07-13T00:49:29;99724.84;;;25.58;58.19
44839;BME280;30576;42.098;24.876;2023-07-13T00:51:59;99724.09;;;25.44;58.06
44839;BME280;30576;42.098;24.876;2023-07-13T00:54:32;99723.56;;;25.39;57.46
44839;BME280;30576;42.098;24.876;2023-07-13T00:57:03;99719.06;;;25.51;56.85
44839;BME280;30576;42.098;24.876;2023-07-13T00:59:31;99700.75;;;25.32;56.68
44839;BME280;30576;42.098;24.876;2023-07-13T01:01:56;99693.59;;;25.31;56.74
44839;BME280;30576;42.098;24.876;2023-07-13T01:04:26;99734.94;;;25.31;57.95
44839;BME280;30576;42.098;24.876;2023-07-13T01:06:51;99724.28;;;25.06;58.95
44839;BME280;30576;42.098;24.876;2023-07-13T01:09:17;99704.44;;;25.18;58.38
44839;BME280;30576;42.098;24.876;2023-07-13T01:11:43;99679.81;;;24.74;59.88
44839;BME280;30576;42.098;24.876;2023-07-13T01:14:10;99693.59;;;25.07;60.01
44839;BME280;30576;42.098;24.876;2023-07-13T01:16:37;99688.53;;;25.02;60.25
44839;BME280;30576;42.098;24.876;2023-07-13T01:19:18;99707.84;;;25.33;59.95
44839;BME280;30576;42.098;24.876;2023-07-13T01:21:50;99699.97;;;25.30;60.25
44839;BME280;30576;42.098;24.876;2023-07-13T01:24:16;99682.56;;;25.10;60.75
44839;BME280;30576;42.098;24.876;2023-07-13T01:26:42;99673.38;;;25.12;60.40
44839;BME280;30576;42.098;24.876;2023-07-13T01:29:07;99701.69;;;25.31;60.67
44839;BME280;30576;42.098;24.876;2023-07-13T01:31:33;99708.88;;;25.43;60.33
44839;BME280;30576;42.098;24.876;2023-07-13T01:33:58;99698.34;;;25.27;61.00
44839;BME280;30576;42.098;24.876;2023-07-13T01:36:24;99709.28;;;25.26;61.22
44839;BME280;30576;42.098;24.876;2023-07-13T01:38:49;99706.75;;;25.35;61.13
44839;BME280;30576;42.098;24.876;2023-07-13T01:41:15;99715.19;;;25.31;60.80
44839;BME280;30576;42.098;24.876;2023-07-13T01:43:40;99715.34;;;25.41;60.85
44839;BME280;30576;42.098;24.876;2023-07-13T01:46:06;99718.09;;;25.52;60.89
44839;BME280;30576;42.098;24.876;2023-07-13T01:48:31;99691.69;;;25.20;61.53
44839;BME280;30576;42.098;24.876;2023-07-13T01:50:57;99698.81;;;25.21;61.16
44839;BME280;30576;42.098;24.876;2023-07-13T01:53:22;99701.06;;;25.03;61.52
44839;BME280;30576;42.098;24.876;2023-07-13T01:55:47;99729.78;;;25.04;61.78
44839;BME280;30576;42.098;24.876;2023-07-13T01:58:13;99687.34;;;24.82;61.57
44839;BME280;30576;42.098;24.876;2023-07-13T02:00:38;99721.88;;;24.77;62.57
44839;BME280;30576;42.098;24.876;2023-07-13T02:03:04;99735.44;;;24.88;62.58
44839;BME280;30576;42.098;24.876;2023-07-13T02:05:29;99696.09;;;24.73;62.52
44839;BME280;30576;42.098;24.876;2023-07-13T02:07:55;99694.69;;;24.80;62.42
44839;BME280;30576;42.098;24.876;2023-07-13T02:10:20;99722.16;;;24.98;62.37
44839;BME280;30576;42.098;24.876;2023-07-13T02:12:48;99737.88;;;25.04;62.86
44839;BME280;30576;42.098;24.876;2023-07-13T02:15:13;99731.94;;;24.99;63.06
44839;BME280;30576;42.098;24.876;2023-07-13T02:17:39;99718.00;;;24.81;63.59
44839;BME280;30576;42.098;24.876;2023-07-13T02:20:05;99721.94;;;24.88;62.87
44839;BME280;30576;42.098;24.876;2023-07-13T02:22:31;99723.50;;;24.79;63.53
44839;BME280;30576;42.098;24.876;2023-07-13T02:24:56;99728.47;;;24.73;63.64
44839;BME280;30576;42.098;24.876;2023-07-13T02:27:21;99721.06;;;24.51;64.41
44839;BME280;30576;42.098;24.876;2023-07-13T02:29:47;99752.97;;;24.70;64.81
44839;BME280;30576;42.098;24.876;2023-07-13T02:32:13;99759.34;;;24.69;64.77
44839;BME280;30576;42.098;24.876;2023-07-13T02:34:38;99732.56;;;24.28;65.08
44839;BME280;30576;42.098;24.876;2023-07-13T02:37:04;99750.09;;;24.47;64.90
44839;BME280;30576;42.098;24.876;2023-07-13T02:39:29;99762.84;;;24.58;65.15
44839;BME280;30576;42.098;24.876;2023-07-13T02:41:58;99754.50;;;24.48;65.11
44839;BME280;30576;42.098;24.876;2023-07-13T02:44:24;99764.97;;;24.65;64.83
44839;BME280;30576;42.098;24.876;2023-07-13T02:46:49;99736.09;;;24.29;65.23
44839;BME280;30576;42.098;24.876;2023-07-13T02:49:15;99753.75;;;24.46;65.24
44839;BME280;30576;42.098;24.876;2023-07-13T02:51:40;99759.81;;;24.37;65.94
44839;BME280;30576;42.098;24.876;2023-07-13T02:54:06;99757.88;;;24.26;66.91
44839;BME280;30576;42.098;24.876;2023-07-13T02:56:33;99760.69;;;24.24;67.10
44839;BME280;30576;42.098;24.876;2023-07-13T02:58:59;99748.94;;;24.25;66.92
44839;BME280;30576;42.098;24.876;2023-07-13T03:01:25;99755.16;;;24.39;66.76
44839;BME280;30576;42.098;24.876;2023-07-13T03:03:51;99733.41;;;24.03;68.00
44839;BME280;30576;42.098;24.876;2023-07-13T03:06:17;99770.38;;;24.27;67.70
44839;BME280;30576;42.098;24.876;2023-07-13T03:08:44;99733.09;;;24.08;67.74
44839;BME280;30576;42.098;24.876;2023-07-13T03:11:16;99749.13;;;24.35;67.23
44839;BME280;30576;42.098;24.876;2023-07-13T03:13:42;99714.13;;;24.09;67.10
44839;BME280;30576;42.098;24.876;2023-07-13T03:16:09;99757.31;;;24.34;67.56
44839;BME280;30576;42.098;24.876;2023-07-13T03:18:35;99744.19;;;24.29;67.55
44839;BME280;30576;42.098;24.876;2023-07-13T03:21:01;99738.28;;;24.24;67.54
44839;BME280;30576;42.098;24.876;2023-07-13T03:23:27;99742.78;;;24.23;68.24
44839;BME280;30576;42.098;24.876;2023-07-13T03:26:12;99739.56;;;24.18;68.44
44839;BME280;30576;42.098;24.876;2023-07-13T03:28:38;99741.06;;;24.22;68.92
44839;BME280;30576;42.098;24.876;2023-07-13T03:31:07;99709.72;;;24.08;68.70
44839;BME280;30576;42.098;24.876;2023-07-13T03:33:33;99762.28;;;24.40;68.73
44839;BME280;30576;42.098;24.876;2023-07-13T03:35:58;99737.69;;;24.44;68.51
44839;BME280;30576;42.098;24.876;2023-07-13T03:38:25;99747.94;;;24.39;68.46
44839;BME280;30576;42.098;24.876;2023-07-13T03:40:52;99720.22;;;24.37;68.44
44839;BME280;30576;42.098;24.876;2023-07-13T03:43:17;99760.31;;;24.55;68.57
44839;BME280;30576;42.098;24.876;2023-07-13T03:45:43;99752.56;;;24.50;68.75
44839;BME280;30576;42.098;24.876;2023-07-13T03:48:09;99751.16;;;24.70;68.02
44839;BME280;30576;42.098;24.876;2023-07-13T03:50:34;99754.16;;;24.78;67.89
44839;BME280;30576;42.098;24.876;2023-07-13T03:53:00;99731.50;;;24.68;67.93
44839;BME280;30576;42.098;24.876;2023-07-13T03:55:26;99753.34;;;24.89;67.69
44839;BME280;30576;42.098;24.876;2023-07-13T03:57:57;99739.63;;;24.92;67.35
44839;BME280;30576;42.098;24.876;2023-07-13T04:00:23;99725.00;;;24.83;67.58
44839;BME280;30576;42.098;24.876;2023-07-13T04:02:48;99772.28;;;25.13;67.35
44839;BME280;30576;42.098;24.876;2023-07-13T04:05:15;99771.81;;;25.19;67.49
44839;BME280;30576;42.098;24.876;2023-07-13T04:07:40;99742.97;;;25.20;66.93
44839;BME280;30576;42.098;24.876;2023-07-13T04:10:06;99758.19;;;25.21;67.30
44839;BME280;30576;42.098;24.876;2023-07-13T04:12:32;99756.34;;;25.22;66.86
44839;BME280;30576;42.098;24.876;2023-07-13T04:14:57;99773.91;;;25.40;66.62
44839;BME280;30576;42.098;24.876;2023-07-13T04:17:22;99729.31;;;25.34;66.21
44839;BME280;30576;42.098;24.876;2023-07-13T04:19:48;99763.22;;;25.74;66.09
44839;BME280;30576;42.098;24.876;2023-07-13T04:22:14;99761.09;;;26.02;65.24
44839;BME280;30576;42.098;24.876;2023-07-13T04:24:39;99725.16;;;25.88;64.21
44839;BME280;30576;42.098;24.876;2023-07-13T04:27:06;99759.59;;;25.98;64.04
44839;BME280;30576;42.098;24.876;2023-07-13T04:29:32;99747.69;;;26.00;63.77
44839;BME280;30576;42.098;24.876;2023-07-13T04:31:57;99778.56;;;26.20;63.72
44839;BME280;30576;42.098;24.876;2023-07-13T04:34:23;99727.06;;;25.99;63.55
44839;BME280;30576;42.098;24.876;2023-07-13T04:36:49;99735.44;;;26.19;63.11
44839;BME280;30576;42.098;24.876;2023-07-13T04:39:15;99763.06;;;26.56;62.89
44839;BME280;30576;42.098;24.876;2023-07-13T04:41:40;99785.38;;;26.71;62.04
44839;BME280;30576;42.098;24.876;2023-07-13T04:44:06;99795.50;;;27.02;61.83
44839;BME280;30576;42.098;24.876;2023-07-13T04:46:31;99782.44;;;27.18;60.72
44839;BME280;30576;42.098;24.876;2023-07-13T04:48:57;99754.50;;;27.18;59.41
44839;BME280;30576;42.098;24.876;2023-07-13T04:51:23;99768.59;;;26.89;61.07
44839;BME280;30576;42.098;24.876;2023-07-13T04:53:49;99760.50;;;26.66;60.67
44839;BME280;30576;42.098;24.876;2023-07-13T04:56:14;99778.06;;;26.83;60.66
44839;BME280;30576;42.098;24.876;2023-07-13T04:58:40;99747.28;;;26.95;58.29
44839;BME280;30576;42.098;24.876;2023-07-13T05:01:06;99784.97;;;27.31;58.82
44839;BME280;30576;42.098;24.876;2023-07-13T05:03:32;99772.34;;;27.31;58.59
44839;BME280;30576;42.098;24.876;2023-07-13T05:06:06;99800.59;;;27.71;55.64
44839;BME280;30576;42.098;24.876;2023-07-13T05:08:32;99773.63;;;27.69;55.24
44839;BME280;30576;42.098;24.876;2023-07-13T05:11:00;99750.38;;;27.67;54.46
44839;BME280;30576;42.098;24.876;2023-07-13T05:13:25;99794.47;;;27.69;53.78
44839;BME280;30576;42.098;24.876;2023-07-13T05:16:00;99789.28;;;27.66;55.13
44839;BME280;30576;42.098;24.876;2023-07-13T05:18:26;99737.44;;;27.71;54.72
44839;BME280;30576;42.098;24.876;2023-07-13T05:21:00;99765.25;;;27.73;53.51
44839;BME280;30576;42.098;24.876;2023-07-13T05:23:25;99753.19;;;27.44;53.53
44839;BME280;30576;42.098;24.876;2023-07-13T05:25:51;99791.63;;;28.34;53.45
44839;BME280;30576;42.098;24.876;2023-07-13T05:28:16;99742.56;;;28.16;52.58
44839;BME280;30576;42.098;24.876;2023-07-13T05:30:46;99783.03;;;28.29;52.54
44839;BME280;30576;42.098;24.876;2023-07-13T05:33:11;99780.25;;;28.71;51.99
44839;BME280;30576;42.098;24.876;2023-07-13T05:35:37;99774.75;;;29.02;50.78
44839;BME280;30576;42.098;24.876;2023-07-13T05:38:02;99751.44;;;28.80;51.03
44839;BME280;30576;42.098;24.876;2023-07-13T05:40:28;99772.69;;;29.35;49.11
44839;BME280;30576;42.098;24.876;2023-07-13T05:42:53;99765.22;;;29.27;49.58
44839;BME280;30576;42.098;24.876;2023-07-13T05:45:19;99766.25;;;29.65;48.97
44839;BME280;30576;42.098;24.876;2023-07-13T05:47:44;99802.81;;;30.20;47.62
44839;BME280;30576;42.098;24.876;2023-07-13T05:50:10;99769.19;;;30.21;48.02
44839;BME280;30576;42.098;24.876;2023-07-13T05:52:35;99761.50;;;30.06;48.23
44839;BME280;30576;42.098;24.876;2023-07-13T05:55:01;99789.66;;;30.25;49.37
44839;BME280;30576;42.098;24.876;2023-07-13T05:57:26;99757.09;;;30.70;47.64
44839;BME280;30576;42.098;24.876;2023-07-13T05:59:51;99764.81;;;30.47;46.63
44839;BME280;30576;42.098;24.876;2023-07-13T06:02:17;99794.50;;;30.41;46.45
44839;BME280;30576;42.098;24.876;2023-07-13T06:04:42;99788.53;;;30.55;45.96
44839;BME280;30576;42.098;24.876;2023-07-13T06:07:08;99745.28;;;30.14;48.31
44839;BME280;30576;42.098;24.876;2023-07-13T06:09:33;99780.34;;;30.93;46.92
44839;BME280;30576;42.098;24.876;2023-07-13T06:11:59;99765.38;;;31.24;46.85
44839;BME280;30576;42.098;24.876;2023-07-13T06:14:24;99783.53;;;31.70;45.46
44839;BME280;30576;42.098;24.876;2023-07-13T06:16:50;99780.75;;;31.80;43.72
44839;BME280;30576;42.098;24.876;2023-07-13T06:19:15;99788.63;;;32.09;43.29
44839;BME280;30576;42.098;24.876;2023-07-13T06:21:41;99790.69;;;31.89;44.25
44839;BME280;30576;42.098;24.876;2023-07-13T06:24:06;99791.03;;;31.68;45.08
44839;BME280;30576;42.098;24.876;2023-07-13T06:26:32;99763.63;;;31.51;42.63
44839;BME280;30576;42.098;24.876;2023-07-13T06:28:57;99799.53;;;31.47;43.65
44839;BME280;30576;42.098;24.876;2023-07-13T06:31:23;99752.75;;;31.77;44.85
44839;BME280;30576;42.098;24.876;2023-07-13T06:33:48;99763.78;;;31.94;43.87
44839;BME280;30576;42.098;24.876;2023-07-13T06:36:14;99775.81;;;31.83;42.48
44839;BME280;30576;42.098;24.876;2023-07-13T06:38:39;99770.09;;;32.47;41.07
44839;BME280;30576;42.098;24.876;2023-07-13T06:41:07;99761.78;;;32.91;40.42
44839;BME280;30576;42.098;24.876;2023-07-13T06:43:32;99766.50;;;32.73;40.19
44839;BME280;30576;42.098;24.876;2023-07-13T06:45:58;99775.38;;;32.75;39.09
44839;BME280;30576;42.098;24.876;2023-07-13T06:48:24;99748.72;;;32.69;42.48
44839;BME280;30576;42.098;24.876;2023-07-13T06:50:50;99749.44;;;33.22;41.52
44839;BME280;30576;42.098;24.876;2023-07-13T06:53:17;99722.63;;;33.83;38.56
44839;BME280;30576;42.098;24.876;2023-07-13T06:55:43;99749.63;;;34.02;38.63
44839;BME280;30576;42.098;24.876;2023-07-13T06:58:09;99750.63;;;33.52;40.58
44839;BME280;30576;42.098;24.876;2023-07-13T07:00:35;99745.50;;;34.06;38.32
44839;BME280;30576;42.098;24.876;2023-07-13T07:03:00;99764.13;;;34.19;37.02
44839;BME280;30576;42.098;24.876;2023-07-13T07:05:26;99744.84;;;33.63;36.99
44839;BME280;30576;42.098;24.876;2023-07-13T07:07:53;99723.09;;;34.11;36.37
44839;BME280;30576;42.098;24.876;2023-07-13T07:10:19;99779.50;;;34.93;36.63
44839;BME280;30576;42.098;24.876;2023-07-13T07:12:45;99770.06;;;35.50;35.62
44839;BME280;30576;42.098;24.876;2023-07-13T07:15:11;99760.72;;;34.73;34.31
44839;BME280;30576;42.098;24.876;2023-07-13T07:17:37;99763.34;;;35.29;36.32
44839;BME280;30576;42.098;24.876;2023-07-13T07:20:03;99755.25;;;35.82;35.84
44839;BME280;30576;42.098;24.876;2023-07-13T07:22:29;99745.91;;;35.22;35.44
44839;BME280;30576;42.098;24.876;2023-07-13T07:24:55;99760.19;;;35.64;34.86
44839;BME280;30576;42.098;24.876;2023-07-13T07:27:21;99759.81;;;35.67;33.41
44839;BME280;30576;42.098;24.876;2023-07-13T07:29:47;99748.09;;;35.73;33.45
44839;BME280;30576;42.098;24.876;2023-07-13T07:32:12;99768.69;;;35.23;34.68
44839;BME280;30576;42.098;24.876;2023-07-13T07:34:38;99751.06;;;35.87;34.72
44839;BME280;30576;42.098;24.876;2023-07-13T07:37:03;99713.72;;;36.00;33.11
44839;BME280;30576;42.098;24.876;2023-07-13T07:39:29;99745.59;;;36.40;33.71
44839;BME280;30576;42.098;24.876;2023-07-13T07:41:55;99737.81;;;36.43;33.93
44839;BME280;30576;42.098;24.876;2023-07-13T07:44:20;99722.09;;;36.37;33.12
44839;BME280;30576;42.098;24.876;2023-07-13T07:46:46;99710.88;;;36.83;32.33
44839;BME280;30576;42.098;24.876;2023-07-13T07:49:12;99750.81;;;37.01;31.81
44839;BME280;30576;42.098;24.876;2023-07-13T07:51:37;99744.59;;;36.02;32.40
44839;BME280;30576;42.098;24.876;2023-07-13T07:54:03;99744.97;;;36.59;32.13
44839;BME280;30576;42.098;24.876;2023-07-13T07:56:29;99752.28;;;36.82;32.18
44839;BME280;30576;42.098;24.876;2023-07-13T07:58:55;99745.25;;;36.94;30.93
44839;BME280;30576;42.098;24.876;2023-07-13T08:01:21;99751.81;;;37.15;31.93
44839;BME280;30576;42.098;24.876;2023-07-13T08:03:46;99725.56;;;36.76;31.61
44839;BME280;30576;42.098;24.876;2023-07-13T08:06:12;99731.94;;;37.34;30.06
44839;BME280;30576;42.098;24.876;2023-07-13T08:08:37;99731.53;;;37.80;30.16
44839;BME280;30576;42.098;24.876;2023-07-13T08:11:07;99724.56;;;37.63;31.04
44839;BME280;30576;42.098;24.876;2023-07-13T08:13:33;99720.81;;;37.06;30.82
44839;BME280;30576;42.098;24.876;2023-07-13T08:15:59;99725.50;;;37.49;31.20
44839;BME280;30576;42.098;24.876;2023-07-13T08:18:24;99730.41;;;37.75;29.44
44839;BME280;30576;42.098;24.876;2023-07-13T08:20:50;99709.78;;;37.92;30.30
44839;BME280;30576;42.098;24.876;2023-07-13T08:23:15;99735.53;;;38.35;29.96
44839;BME280;30576;42.098;24.876;2023-07-13T08:25:42;99712.97;;;37.68;30.43
44839;BME280;30576;42.098;24.876;2023-07-13T08:28:07;99713.75;;;37.33;30.93
44839;BME280;30576;42.098;24.876;2023-07-13T08:30:33;99708.22;;;37.55;33.28
44839;BME280;30576;42.098;24.876;2023-07-13T08:32:58;99705.75;;;38.17;30.41
44839;BME280;30576;42.098;24.876;2023-07-13T08:35:24;99716.94;;;38.50;30.94
44839;BME280;30576;42.098;24.876;2023-07-13T08:37:51;99707.38;;;38.39;29.86
44839;BME280;30576;42.098;24.876;2023-07-13T08:40:19;99695.38;;;37.90;29.63
44839;BME280;30576;42.098;24.876;2023-07-13T08:42:57;99704.53;;;37.48;29.98
44839;BME280;30576;42.098;24.876;2023-07-13T08:48:02;99715.69;;;39.01;29.20
44839;BME280;30576;42.098;24.876;2023-07-13T08:50:43;99701.78;;;38.74;28.78
44839;BME280;30576;42.098;24.876;2023-07-13T08:53:13;99702.16;;;39.19;27.14
44839;BME280;30576;42.098;24.876;2023-07-13T08:55:40;99712.81;;;39.56;28.99
44839;BME280;30576;42.098;24.876;2023-07-13T08:58:11;99686.44;;;39.27;28.01
44839;BME280;30576;42.098;24.876;2023-07-13T09:00:59;99674.13;;;39.09;27.56
44839;BME280;30576;42.098;24.876;2023-07-13T09:03:36;99674.31;;;39.08;27.34
44839;BME280;30576;42.098;24.876;2023-07-13T09:06:02;99671.81;;;39.53;26.23
44839;BME280;30576;42.098;24.876;2023-07-13T09:11:36;99706.94;;;38.97;28.63
44839;BME280;30576;42.098;24.876;2023-07-13T09:14:33;99692.19;;;39.12;27.51
44839;BME280;30576;42.098;24.876;2023-07-13T09:17:03;99688.19;;;39.68;28.66
44839;BME280;30576;42.098;24.876;2023-07-13T09:19:32;99662.72;;;39.26;27.33
44839;BME280;30576;42.098;24.876;2023-07-13T09:22:03;99687.56;;;39.59;26.27
44839;BME280;30576;42.098;24.876;2023-07-13T09:25:00;99687.44;;;38.99;27.31
44839;BME280;30576;42.098;24.876;2023-07-13T09:27:37;99680.22;;;38.91;27.20
44839;BME280;30576;42.098;24.876;2023-07-13T09:32:41;99661.66;;;39.33;26.80
44839;BME280;30576;42.098;24.876;2023-07-13T09:35:12;99661.22;;;39.43;27.10
44839;BME280;30576;42.098;24.876;2023-07-13T09:37:43;99653.16;;;39.15;25.49
44839;BME280;30576;42.098;24.876;2023-07-13T09:40:35;99653.94;;;39.02;29.01
44839;BME280;30576;42.098;24.876;2023-07-13T09:43:03;99652.94;;;39.77;27.12
44839;BME280;30576;42.098;24.876;2023-07-13T09:45:33;99649.31;;;40.03;26.50
44839;BME280;30576;42.098;24.876;2023-07-13T09:48:04;99627.06;;;40.36;23.95
44839;BME280;30576;42.098;24.876;2023-07-13T09:50:30;99597.09;;;40.33;23.91
44839;BME280;30576;42.098;24.876;2023-07-13T09:52:55;99630.28;;;40.72;23.86
44839;BME280;30576;42.098;24.876;2023-07-13T09:57:53;99603.97;;;41.01;22.96
44839;BME280;30576;42.098;24.876;2023-07-13T10:00:28;99602.13;;;41.20;23.20
44839;BME280;30576;42.098;24.876;2023-07-13T10:03:03;99621.13;;;40.46;26.39
44839;BME280;30576;42.098;24.876;2023-07-13T10:05:40;99587.31;;;40.37;21.82
44839;BME280;30576;42.098;24.876;2023-07-13T10:08:16;99604.22;;;40.16;25.14
44839;BME280;30576;42.098;24.876;2023-07-13T10:10:41;99594.03;;;40.09;24.09
44839;BME280;30576;42.098;24.876;2023-07-13T10:13:29;99595.19;;;40.79;23.42
44839;BME280;30576;42.098;24.876;2023-07-13T10:15:55;99591.06;;;40.56;23.25
44839;BME280;30576;42.098;24.876;2023-07-13T10:18:22;99595.00;;;40.35;23.46
44839;BME280;30576;42.098;24.876;2023-07-13T10:21:14;99570.84;;;40.17;23.26
44839;BME280;30576;42.098;24.876;2023-07-13T10:23:39;99569.59;;;40.58;23.13
44839;BME280;30576;42.098;24.876;2023-07-13T10:26:07;99556.25;;;40.80;23.72
44839;BME280;30576;42.098;24.876;2023-07-13T10:28:38;99563.22;;;41.15;22.57
44839;BME280;30576;42.098;24.876;2023-07-13T10:31:09;99566.72;;;41.04;23.53
44839;BME280;30576;42.098;24.876;2023-07-13T10:33:36;99575.28;;;41.46;21.65
44839;BME280;30576;42.098;24.876;2023-07-13T10:38:46;99574.19;;;41.03;22.78
44839;BME280;30576;42.098;24.876;2023-07-13T10:41:18;99568.16;;;40.81;22.18
44839;BME280;30576;42.098;24.876;2023-07-13T10:43:48;99574.75;;;40.48;21.81
44839;BME280;30576;42.098;24.876;2023-07-13T10:46:18;99562.88;;;40.48;21.87
44839;BME280;30576;42.098;24.876;2023-07-13T10:48:47;99541.69;;;40.98;20.37
44839;BME280;30576;42.098;24.876;2023-07-13T10:51:17;99557.94;;;41.57;21.19
44839;BME280;30576;42.098;24.876;2023-07-13T10:53:43;99548.88;;;41.50;21.44
44839;BME280;30576;42.098;24.876;2023-07-13T10:56:29;99532.72;;;41.03;22.40
44839;BME280;30576;42.098;24.876;2023-07-13T11:01:50;99537.16;;;41.29;21.15
44839;BME280;30576;42.098;24.876;2023-07-13T11:04:19;99544.38;;;40.73;22.44
44839;BME280;30576;42.098;24.876;2023-07-13T11:06:47;99542.06;;;41.02;23.80
44839;BME280;30576;42.098;24.876;2023-07-13T11:19:51;99510.06;;;41.13;23.80
44839;BME280;30576;42.098;24.876;2023-07-13T11:22:23;99522.88;;;41.07;22.74
44839;BME280;30576;42.098;24.876;2023-07-13T11:24:57;99510.75;;;41.27;24.41
44839;BME280;30576;42.098;24.876;2023-07-13T11:27:45;99534.78;;;41.33;22.58
44839;BME280;30576;42.098;24.876;2023-07-13T11:33:02;99520.03;;;41.95;21.16
44839;BME280;30576;42.098;24.876;2023-07-13T11:35:34;99513.91;;;41.56;20.09
44839;BME280;30576;42.098;24.876;2023-07-13T11:38:02;99488.69;;;41.82;19.82
44839;BME280;30576;42.098;24.876;2023-07-13T11:40:29;99500.41;;;42.15;20.05
44839;BME280;30576;42.098;24.876;2023-07-13T11:43:00;99480.94;;;42.03;22.10
44839;BME280;30576;42.098;24.876;2023-07-13T11:45:26;99506.97;;;42.32;21.49
44839;BME280;30576;42.098;24.876;2023-07-13T11:47:53;99498.31;;;42.10;21.55
44839;BME280;30576;42.098;24.876;2023-07-13T11:50:22;99482.28;;;42.12;21.49
44839;BME280;30576;42.098;24.876;2023-07-13T11:52:49;99486.75;;;42.13;19.32
44839;BME280;30576;42.098;24.876;2023-07-13T11:55:18;99508.16;;;42.25;20.94
44839;BME280;30576;42.098;24.876;2023-07-13T11:57:58;99482.22;;;41.70;20.76
44839;BME280;30576;42.098;24.876;2023-07-13T12:00:29;99491.59;;;41.32;22.89
44839;BME280;30576;42.098;24.876;2023-07-13T12:02:59;99499.19;;;41.37;20.33
44839;BME280;30576;42.098;24.876;2023-07-13T12:05:26;99479.50;;;41.26;21.60
44839;BME280;30576;42.098;24.876;2023-07-13T12:07:52;99487.91;;;41.75;21.54
44839;BME280;30576;42.098;24.876;2023-07-13T12:10:29;99490.66;;;41.94;20.46
44839;BME280;30576;42.098;24.876;2023-07-13T12:15:22;99481.75;;;42.22;20.60
44839;BME280;30576;42.098;24.876;2023-07-13T12:17:49;99467.53;;;42.18;20.37
44839;BME280;30576;42.098;24.876;2023-07-13T12:20:25;99461.03;;;42.67;20.00
44839;BME280;30576;42.098;24.876;2023-07-13T12:22:52;99464.34;;;42.33;20.82
44839;BME280;30576;42.098;24.876;2023-07-13T12:25:18;99442.59;;;42.61;18.96
44839;BME280;30576;42.098;24.876;2023-07-13T12:27:49;99438.63;;;42.80;19.25
44839;BME280;30576;42.098;24.876;2023-07-13T12:30:31;99445.25;;;43.26;20.02
44839;BME280;30576;42.098;24.876;2023-07-13T12:33:11;99448.63;;;42.69;18.75
44839;BME280;30576;42.098;24.876;2023-07-13T12:35:48;99452.38;;;42.21;18.53
44839;BME280;30576;42.098;24.876;2023-07-13T12:38:16;99450.72;;;42.01;19.50
44839;BME280;30576;42.098;24.876;2023-07-13T12:40:41;99444.00;;;42.51;19.74
44839;BME280;30576;42.098;24.876;2023-07-13T12:43:14;99434.53;;;43.06;19.12
44839;BME280;30576;42.098;24.876;2023-07-13T12:45:58;99424.38;;;43.48;17.60
44839;BME280;30576;42.098;24.876;2023-07-13T12:48:24;99429.03;;;43.59;18.31
44839;BME280;30576;42.098;24.876;2023-07-13T12:50:50;99435.22;;;43.49;18.96
44839;BME280;30576;42.098;24.876;2023-07-13T12:53:20;99420.19;;;43.09;18.34
44839;BME280;30576;42.098;24.876;2023-07-13T12:55:47;99415.59;;;42.91;19.69
44839;BME280;30576;42.098;24.876;2023-07-13T13:01:01;99436.22;;;42.60;21.19
44839;BME280;30576;42.098;24.876;2023-07-13T13:03:35;99411.59;;;42.52;19.30
44839;BME280;30576;42.098;24.876;2023-07-13T13:06:05;99407.81;;;42.34;20.83
44839;BME280;30576;42.098;24.876;2023-07-13T13:08:35;99415.84;;;42.66;19.95
44839;BME280;30576;42.098;24.876;2023-07-13T13:11:02;99404.69;;;42.31;19.97
44839;BME280;30576;42.098;24.876;2023-07-13T13:13:28;99417.00;;;42.35;19.57
44839;BME280;30576;42.098;24.876;2023-07-13T13:15:54;99409.16;;;42.44;19.91
44839;BME280;30576;42.098;24.876;2023-07-13T13:18:21;99419.69;;;42.77;19.85
44839;BME280;30576;42.098;24.876;2023-07-13T13:20:50;99420.53;;;42.89;20.30
44839;BME280;30576;42.098;24.876;2023-07-13T13:23:17;99405.00;;;42.65;19.41
44839;BME280;30576;42.098;24.876;2023-07-13T13:25:48;99411.75;;;42.57;19.36
44839;BME280;30576;42.098;24.876;2023-07-13T13:28:19;99408.84;;;42.75;20.09